Time;durP1;ratioP1;P1;durP2;ratioP2;P2;SDS_P1;SDS_P2;PMS_P1;PMS_P2;Temp;Humidity;BMP_temperature;BMP_pressure;BME280_temperature;BME280_humidity;BME280_pressure;Samples;Min_cycle;Max_cycle;Signal;HPM_P1;HPM_P2
2022/01/25 00:30:10;;;;;;;64.85;19.83;;;4.80;99.90;;;;;;4846431;29;20481;-64
2022/01/25 00:32:33;;;;;;;70.18;20.05;;;4.90;99.90;;;;;;4848934;29;20044;-68
2022/01/25 00:34:59;;;;;;;58.05;19.13;;;4.90;99.90;;;;;;4846672;29;20406;-67
2022/01/25 00:37:24;;;;;;;66.75;20.52;;;4.90;99.90;;;;;;4862360;29;20044;-67
2022/01/25 00:39:51;;;;;;;66.43;21.35;;;4.90;99.90;;;;;;4851456;29;20072;-68
2022/01/25 00:42:16;;;;;;;77.30;22.33;;;4.90;99.90;;;;;;4866311;29;20301;-68
2022/01/25 00:44:46;;;;;;;75.88;22.33;;;4.90;99.90;;;;;;4863235;29;20786;-67
2022/01/25 00:47:12;;;;;;;72.15;21.75;;;4.90;99.90;;;;;;4848230;29;20037;-67
2022/01/25 00:49:39;;;;;;;108.20;32.00;;;4.90;99.90;;;;;;4860662;29;20037;-64
2022/01/25 00:52:18;;;;;;;76.35;22.75;;;4.90;99.90;;;;;;4863549;29;20367;-68
2022/01/25 00:54:44;;;;;;;73.47;22.27;;;4.70;99.90;;;;;;4854444;29;20041;-67
2022/01/25 00:57:09;;;;;;;78.35;22.17;;;4.90;99.90;;;;;;4862303;29;20558;-68
2022/01/25 00:59:35;;;;;;;81.15;22.48;;;5.00;99.90;;;;;;4846500;29;20047;-67
2022/01/25 01:02:00;;;;;;;81.85;22.45;;;5.00;99.90;;;;;;4842790;29;20580;-68
2022/01/25 01:04:26;;;;;;;85.63;22.52;;;4.90;99.90;;;;;;4857371;29;20371;-67
2022/01/25 01:06:52;;;;;;;90.85;22.33;;;4.90;99.90;;;;;;4854502;29;20068;-64
2022/01/25 01:09:17;;;;;;;90.03;23.58;;;4.90;99.90;;;;;;4855674;29;20505;-64
2022/01/25 01:11:55;;;;;;;94.50;24.65;;;4.90;99.90;;;;;;4869845;29;20046;-64
2022/01/25 01:17:37;;;;;;;;;;;4.80;99.90;;;;;;4826367;29;20056;-64
2022/01/25 01:33:39;;;;;;;105.70;25.33;;;4.70;99.90;;;;;;4867364;29;20062;-64
2022/01/25 01:44:17;;;;;;;104.93;26.02;;;4.70;99.90;;;;;;4859451;29;20125;-67
2022/01/25 01:46:58;;;;;;;114.65;26.65;;;4.70;99.90;;;;;;4858992;29;20129;-67
2022/01/25 01:49:25;;;;;;;109.93;26.38;;;4.70;99.90;;;;;;4865959;29;20034;-67
2022/01/25 01:51:51;;;;;;;110.20;26.42;;;4.60;99.90;;;;;;4866840;29;20111;-67
2022/01/25 01:54:16;;;;;;;114.18;27.30;;;4.60;99.90;;;;;;4862360;29;20067;-64
2022/01/25 01:56:42;;;;;;;121.43;26.30;;;4.60;99.90;;;;;;4865252;29;20041;-64
2022/01/25 01:59:07;;;;;;;111.88;26.30;;;4.60;99.90;;;;;;4860891;29;20041;-67
2022/01/25 02:01:33;;;;;;;120.68;27.05;;;4.60;99.90;;;;;;4843425;29;20033;-66
2022/01/25 02:03:58;;;;;;;124.45;27.55;;;4.60;99.90;;;;;;4843125;29;20184;-67
2022/01/25 02:06:24;;;;;;;115.65;26.38;;;4.60;99.90;;;;;;4858093;29;20495;-64
2022/01/25 02:08:49;;;;;;;111.40;24.63;;;4.60;99.90;;;;;;4861770;29;20044;-64
2022/01/25 02:11:15;;;;;;;132.15;27.95;;;4.50;99.90;;;;;;4861626;29;20520;-67
2022/01/25 02:13:41;;;;;;;130.15;28.75;;;4.60;99.90;;;;;;4844602;29;20037;-67
2022/01/25 02:16:10;;;;;;;96.40;23.35;;;4.50;99.90;;;;;;4847421;29;20485;-67
2022/01/25 02:24:04;;;;;;;110.97;25.00;;;4.50;99.90;;;;;;4861608;29;20029;-67
2022/01/25 02:26:30;;;;;;;114.18;26.95;;;4.50;99.90;;;;;;4859908;29;20473;-67
2022/01/25 02:28:55;;;;;;;107.57;25.40;;;4.50;99.90;;;;;;4834717;29;20033;-67
2022/01/25 02:31:21;;;;;;;115.53;26.45;;;4.50;99.90;;;;;;4844840;29;20029;-67
2022/01/25 02:33:46;;;;;;;106.50;25.70;;;4.50;99.90;;;;;;4861863;29;20033;-64
2022/01/25 02:36:12;;;;;;;105.13;26.85;;;4.50;99.90;;;;;;4858737;29;20057;-64
2022/01/25 02:38:37;;;;;;;103.55;25.98;;;4.40;99.90;;;;;;4860090;29;20060;-64
2022/01/25 02:41:03;;;;;;;100.85;24.45;;;4.40;99.90;;;;;;4860321;29;20629;-67
2022/01/25 02:43:29;;;;;;;106.43;27.23;;;4.30;99.90;;;;;;4856777;29;20029;-67
2022/01/25 02:48:35;;;;;;;115.10;27.10;;;4.30;99.90;;;;;;4866477;29;20040;-63
2022/01/25 02:51:00;;;;;;;102.18;26.00;;;4.30;99.90;;;;;;4837856;29;20029;-63
2022/01/25 02:53:26;;;;;;;88.10;24.00;;;4.30;99.90;;;;;;4858960;29;20241;-69
2022/01/25 02:55:51;;;;;;;106.22;26.85;;;4.30;99.90;;;;;;4844037;29;20136;-67
2022/01/25 02:58:17;;;;;;;237.80;77.65;;;4.30;99.90;;;;;;4859657;29;20045;-67
2022/01/25 03:00:42;;;;;;;109.88;29.15;;;4.30;99.90;;;;;;4862862;29;20079;-67
2022/01/25 03:03:08;;;;;;;117.68;32.40;;;4.30;99.90;;;;;;4856955;29;20052;-63
2022/01/25 03:05:33;;;;;;;119.05;34.10;;;4.30;99.90;;;;;;4845593;29;20034;-63
2022/01/25 03:07:59;;;;;;;102.82;25.75;;;4.40;99.90;;;;;;4860743;29;20510;-63
2022/01/25 03:10:24;;;;;;;88.05;23.55;;;4.30;99.90;;;;;;4857319;29;20036;-66
2022/01/25 03:12:55;;;;;;;105.30;26.55;;;4.30;99.90;;;;;;4862236;29;20032;-67
2022/01/25 03:17:50;;;;;;;104.72;25.58;;;4.10;99.90;;;;;;4847929;29;20041;-68
2022/01/25 03:20:23;;;;;;;105.45;26.80;;;4.10;99.90;;;;;;4858683;29;20854;-67
2022/01/25 03:22:58;;;;;;;105.95;27.42;;;4.10;99.90;;;;;;4842941;29;20029;-68
2022/01/25 03:25:24;;;;;;;;;;;4.10;99.90;;;;;;4842415;29;20048;-67
2022/01/25 03:27:49;;;;;;;81.85;24.63;;;4.10;99.90;;;;;;4849016;29;19912;-68
2022/01/25 03:30:15;;;;;;;94.60;26.83;;;4.10;99.90;;;;;;4861986;29;20080;-67
2022/01/25 03:32:40;;;;;;;88.28;23.67;;;4.00;99.90;;;;;;4859409;29;20033;-68
2022/01/25 03:35:05;;;;;;;87.00;25.38;;;4.00;99.90;;;;;;4857894;29;20029;-67
2022/01/25 03:37:31;;;;;;;104.03;25.98;;;4.00;99.90;;;;;;4860506;29;20041;-68
2022/01/25 03:39:56;;;;;;;96.07;26.25;;;3.90;99.90;;;;;;4858436;29;20044;-67
2022/01/25 03:42:23;;;;;;;98.80;25.88;;;4.00;99.90;;;;;;4849130;29;20733;-68
2022/01/25 03:44:49;;;;;;;88.30;24.63;;;4.00;99.90;;;;;;4861885;29;20045;-68
2022/01/25 03:47:18;;;;;;;93.30;25.60;;;4.00;99.90;;;;;;4847187;29;20037;-67
2022/01/25 03:49:49;;;;;;;98.75;25.20;;;3.90;99.90;;;;;;4859561;29;20483;-68
2022/01/25 03:52:16;;;;;;;88.95;25.38;;;3.90;99.90;;;;;;4857268;29;20030;-63
2022/01/25 03:54:42;;;;;;;89.47;24.45;;;3.90;99.90;;;;;;4866075;29;20039;-64
2022/01/25 03:57:07;;;;;;;102.03;26.00;;;3.90;99.90;;;;;;4865935;29;20029;-64
2022/01/25 03:59:33;;;;;;;91.53;24.08;;;3.90;99.90;;;;;;4864048;29;20097;-64
2022/01/25 04:01:58;;;;;;;92.32;25.05;;;3.90;99.90;;;;;;4834559;29;20503;-64
2022/01/25 04:04:26;;;;;;;108.18;25.52;;;3.90;99.90;;;;;;4860870;29;20593;-64
2022/01/25 04:06:53;;;;;;;96.80;25.05;;;3.90;99.90;;;;;;4842090;29;20029;-64
2022/01/25 04:09:18;;;;;;;111.68;25.15;;;4.00;99.90;;;;;;4843791;29;20030;-64
2022/01/25 04:11:44;;;;;;;108.18;25.48;;;3.90;99.90;;;;;;4843804;29;20041;-63
2022/01/25 04:14:09;;;;;;;107.72;26.27;;;3.90;99.90;;;;;;4855883;29;20041;-68
2022/01/25 04:16:41;;;;;;;110.20;25.70;;;3.80;99.90;;;;;;4860961;29;20124;-64
2022/01/25 04:19:11;;;;;;;113.95;25.33;;;3.80;99.90;;;;;;4859127;29;20041;-64
2022/01/25 04:26:46;;;;;;;110.88;27.33;;;3.80;99.90;;;;;;4857373;29;20026;-64
2022/01/25 04:29:12;;;;;;;116.38;27.85;;;3.80;99.90;;;;;;4828484;29;20032;-64
2022/01/25 04:31:38;;;;;;;120.97;26.77;;;3.70;99.90;;;;;;4862940;29;20036;-64
2022/01/25 04:34:14;;;;;;;117.80;28.83;;;3.70;99.90;;;;;;4858874;29;20040;-68
2022/01/25 04:50:02;;;;;;;126.95;28.02;;;3.50;99.90;;;;;;4858705;29;20029;-64
2022/01/25 04:52:33;;;;;;;142.35;28.23;;;3.40;99.90;;;;;;4862800;29;20098;-64
2022/01/25 04:55:12;;;;;;;138.48;30.63;;;3.40;99.90;;;;;;4864353;29;20482;-64
2022/01/25 04:57:46;;;;;;;139.75;30.67;;;3.40;99.90;;;;;;4850493;29;20056;-64
2022/01/25 05:00:18;;;;;;;112.73;25.30;;;3.40;99.90;;;;;;4862405;29;20672;-64
2022/01/25 05:05:29;;;;;;;143.95;31.55;;;3.40;99.90;;;;;;4862199;29;20029;-65
2022/01/25 05:10:29;;;;;;;136.70;30.15;;;3.30;99.90;;;;;;4860632;29;20109;-64
2022/01/25 05:13:13;;;;;;;133.77;30.83;;;3.30;99.90;;;;;;4859121;29;20042;-64
2022/01/25 05:23:13;;;;;;;122.68;27.48;;;3.30;99.90;;;;;;4863902;29;20121;-64
2022/01/25 05:25:39;;;;;;;124.50;28.77;;;3.30;99.90;;;;;;4863326;29;20138;-64
2022/01/25 05:28:05;;;;;;;126.50;30.10;;;3.30;99.90;;;;;;4859442;29;20064;-64
2022/01/25 05:30:30;;;;;;;126.13;30.95;;;3.30;99.90;;;;;;4858822;29;20037;-64
2022/01/25 05:33:06;;;;;;;130.18;28.85;;;3.30;99.90;;;;;;4862867;29;20033;-64
2022/01/25 05:35:32;;;;;;;114.00;27.92;;;3.40;99.90;;;;;;4848950;29;20809;-64
2022/01/25 05:37:57;;;;;;;110.38;25.63;;;3.40;99.90;;;;;;4848401;29;20036;-64
2022/01/25 05:45:56;;;;;;;114.68;27.45;;;3.40;99.90;;;;;;4860421;29;20028;-68
2022/01/25 05:48:22;;;;;;;120.47;29.05;;;3.50;99.90;;;;;;4841687;29;20041;-68
2022/01/25 05:50:47;;;;;;;120.75;28.85;;;3.40;99.90;;;;;;4846610;29;20036;-68
2022/01/25 05:53:13;;;;;;;113.22;27.67;;;3.40;99.90;;;;;;4861013;29;20036;-68
2022/01/25 05:55:38;;;;;;;112.47;26.98;;;3.40;99.90;;;;;;4860037;29;20401;-68
2022/01/25 05:58:04;;;;;;;119.45;28.73;;;3.40;99.90;;;;;;4835674;29;20169;-67
2022/01/25 06:00:29;;;;;;;117.82;28.02;;;3.40;99.90;;;;;;4845962;29;20036;-69
2022/01/25 06:02:55;;;;;;;107.75;27.55;;;3.40;99.90;;;;;;4848232;29;20066;-68
2022/01/25 06:05:23;;;;;;;99.93;26.92;;;3.40;99.90;;;;;;4844068;29;20038;-68
2022/01/25 06:07:48;;;;;;;108.60;29.27;;;3.40;99.90;;;;;;4858719;29;20072;-64
2022/01/25 06:10:14;;;;;;;99.85;26.33;;;3.50;99.90;;;;;;4863377;29;20117;-64
2022/01/25 06:12:42;;;;;;;110.78;29.95;;;3.40;99.90;;;;;;4845031;29;20038;-64
2022/01/25 06:15:07;;;;;;;101.43;26.83;;;3.40;99.90;;;;;;4857336;29;20041;-64
2022/01/25 06:17:33;;;;;;;105.72;27.13;;;3.40;99.90;;;;;;4848684;29;20781;-64
2022/01/25 06:19:58;;;;;;;123.53;28.88;;;3.40;99.90;;;;;;4861105;29;20117;-64
2022/01/25 06:22:24;;;;;;;97.03;27.08;;;3.50;99.90;;;;;;4861747;29;20053;-67
2022/01/25 06:24:49;;;;;;;100.95;27.92;;;3.50;99.90;;;;;;4849737;29;20112;-68
2022/01/25 06:27:15;;;;;;;105.18;28.63;;;3.50;99.90;;;;;;4848105;29;20117;-68
2022/01/25 06:29:41;;;;;;;96.90;28.20;;;3.50;99.90;;;;;;4847164;29;20029;-64
2022/01/25 06:32:06;;;;;;;97.78;28.25;;;3.50;99.90;;;;;;4863883;29;20037;-64
2022/01/25 06:34:32;;;;;;;100.15;27.02;;;3.50;99.90;;;;;;4865664;29;20494;-63
2022/01/25 06:36:57;;;;;;;101.00;28.58;;;3.40;99.90;;;;;;4849532;29;20033;-66
2022/01/25 06:39:23;;;;;;;108.57;28.55;;;3.40;99.90;;;;;;4850589;29;20476;-69
2022/01/25 06:41:48;;;;;;;107.50;29.48;;;3.40;99.90;;;;;;4862191;29;20029;-67
2022/01/25 06:44:14;;;;;;;106.72;29.60;;;3.40;99.90;;;;;;4865001;29;20041;-67
2022/01/25 06:46:39;;;;;;;102.15;27.95;;;3.40;99.90;;;;;;4863711;29;20037;-68
2022/01/25 06:49:05;;;;;;;104.50;28.30;;;3.40;99.90;;;;;;4849440;29;20511;-68
2022/01/25 06:51:30;;;;;;;97.07;28.45;;;3.40;99.90;;;;;;4856466;29;20041;-69
2022/01/25 06:53:56;;;;;;;96.63;27.15;;;3.40;99.90;;;;;;4843045;29;20044;-68
2022/01/25 06:56:21;;;;;;;89.38;27.27;;;3.40;99.90;;;;;;4869630;29;20044;-68
2022/01/25 06:58:47;;;;;;;96.05;27.50;;;3.40;99.90;;;;;;4863431;29;20486;-68
2022/01/25 07:01:12;;;;;;;96.03;28.08;;;3.40;99.90;;;;;;4864625;29;20044;-68
2022/01/25 07:03:38;;;;;;;96.82;27.23;;;3.40;99.90;;;;;;4856814;29;20042;-68
2022/01/25 07:06:03;;;;;;;106.25;28.13;;;3.30;99.90;;;;;;4859048;29;20603;-69
2022/01/25 07:08:29;;;;;;;84.22;24.90;;;3.40;99.90;;;;;;4847788;29;20040;-68
2022/01/25 07:10:55;;;;;;;93.80;27.65;;;3.40;99.90;;;;;;4843607;29;20033;-68
2022/01/25 07:13:20;;;;;;;97.60;26.48;;;3.40;99.90;;;;;;4846408;29;20118;-68
2022/01/25 07:15:45;;;;;;;101.60;27.63;;;3.40;99.90;;;;;;4860015;29;20112;-69
2022/01/25 07:18:11;;;;;;;91.65;26.40;;;3.40;99.90;;;;;;4847243;29;20056;-69
2022/01/25 07:20:37;;;;;;;97.07;27.08;;;3.40;99.90;;;;;;4859880;29;20128;-64
2022/01/25 07:23:02;;;;;;;100.88;28.77;;;3.40;99.90;;;;;;4843174;29;20040;-67
2022/01/25 07:25:27;;;;;;;101.10;26.77;;;3.40;99.90;;;;;;4865437;29;20044;-68
2022/01/25 07:27:53;;;;;;;98.63;27.70;;;3.40;99.90;;;;;;4863894;29;20132;-68
2022/01/25 07:30:18;;;;;;;89.65;26.83;;;3.40;99.90;;;;;;4864305;29;20112;-68
2022/01/25 07:32:44;;;;;;;112.32;28.90;;;3.40;99.90;;;;;;4842146;29;20144;-67
2022/01/25 07:35:10;;;;;;;109.82;28.58;;;3.50;99.90;;;;;;4860365;29;20180;-68
2022/01/25 07:37:35;;;;;;;113.78;27.10;;;3.50;99.90;;;;;;4845441;29;20103;-67
2022/01/25 07:40:01;;;;;;;105.53;29.08;;;3.50;99.90;;;;;;4848396;29;20722;-68
2022/01/25 07:42:28;;;;;;;100.78;29.58;;;3.50;99.90;;;;;;4834133;29;20052;-63
2022/01/25 07:44:55;;;;;;;100.63;27.70;;;3.50;99.90;;;;;;4827777;29;20053;-67
2022/01/25 07:47:20;;;;;;;115.43;34.55;;;3.50;99.90;;;;;;4861879;29;20045;-67
2022/01/25 07:49:46;;;;;;;112.95;31.65;;;3.50;99.90;;;;;;4855845;29;20032;-68
2022/01/25 07:52:11;;;;;;;139.90;41.05;;;3.50;99.90;;;;;;4842058;29;20090;-68
2022/01/25 07:54:37;;;;;;;120.95;34.00;;;3.60;99.90;;;;;;4860792;29;20107;-67
2022/01/25 07:57:02;;;;;;;106.28;31.13;;;3.50;99.90;;;;;;4857138;29;20060;-68
2022/01/25 07:59:30;;;;;;;104.10;29.48;;;3.50;99.90;;;;;;4845146;29;20060;-68
2022/01/25 08:01:56;;;;;;;98.63;28.00;;;3.50;99.90;;;;;;4859591;29;20486;-68
2022/01/25 08:04:21;;;;;;;104.20;27.65;;;3.50;99.90;;;;;;4833824;29;20065;-69
2022/01/25 08:06:48;;;;;;;93.95;27.38;;;3.50;99.90;;;;;;4857203;29;20065;-67
2022/01/25 08:09:13;;;;;;;102.05;27.92;;;3.50;99.90;;;;;;4834260;29;20029;-68
2022/01/25 08:11:39;;;;;;;109.15;27.83;;;3.50;99.90;;;;;;4835871;29;20453;-67
2022/01/25 08:14:16;;;;;;;98.18;28.13;;;3.50;99.90;;;;;;4862829;29;20037;-67
2022/01/25 08:16:41;;;;;;;100.28;28.83;;;3.50;99.90;;;;;;4863977;29;20458;-69
2022/01/25 08:19:07;;;;;;;103.13;28.13;;;3.50;99.90;;;;;;4859322;29;20073;-68
2022/01/25 08:21:33;;;;;;;104.57;28.33;;;3.40;99.90;;;;;;4833845;29;20033;-65
2022/01/25 08:23:58;;;;;;;106.45;28.10;;;3.50;99.90;;;;;;4866166;29;20036;-68
2022/01/25 08:26:24;;;;;;;99.90;27.10;;;3.50;99.90;;;;;;4863159;29;20037;-68
2022/01/25 08:28:49;;;;;;;103.55;28.98;;;3.50;99.90;;;;;;4843781;29;20026;-68
2022/01/25 08:31:15;;;;;;;105.75;27.88;;;3.50;99.90;;;;;;4866984;29;20085;-68
2022/01/25 08:33:40;;;;;;;104.72;27.48;;;3.60;99.90;;;;;;4864348;29;20025;-63
2022/01/25 08:36:06;;;;;;;105.28;27.60;;;3.60;99.90;;;;;;4870247;29;20591;-64
2022/01/25 08:38:31;;;;;;;97.65;26.60;;;3.60;99.90;;;;;;4844895;29;20048;-64
2022/01/25 08:41:00;;;;;;;106.03;27.70;;;3.60;99.90;;;;;;4845366;29;20116;-68
2022/01/25 08:43:25;;;;;;;99.93;30.20;;;3.60;99.90;;;;;;4849354;29;20105;-68
2022/01/25 08:45:51;;;;;;;102.97;29.48;;;3.70;99.90;;;;;;4865375;29;20494;-68
2022/01/25 08:48:16;;;;;;;102.38;28.98;;;3.70;99.90;;;;;;4849198;29;20037;-69
2022/01/25 08:50:42;;;;;;;98.45;27.35;;;3.80;99.90;;;;;;4845390;29;20036;-69
2022/01/25 08:53:09;;;;;;;91.07;27.73;;;3.80;99.90;;;;;;4867026;29;20036;-64
2022/01/25 08:55:34;;;;;;;85.65;26.17;;;3.90;99.90;;;;;;4848729;29;20064;-64
2022/01/25 08:58:00;;;;;;;92.40;26.60;;;3.90;99.90;;;;;;4864417;29;20060;-68
2022/01/25 09:00:25;;;;;;;88.43;24.98;;;4.00;99.90;;;;;;4852738;29;20044;-69
2022/01/25 09:02:51;;;;;;;87.13;25.58;;;4.10;99.90;;;;;;4851450;29;20080;-64
2022/01/25 09:05:16;;;;;;;89.97;25.70;;;4.20;99.90;;;;;;4851575;29;20090;-65
2022/01/25 09:07:42;;;;;;;82.28;24.92;;;4.30;99.90;;;;;;4849496;29;20831;-64
2022/01/25 09:10:08;;;;;;;88.53;26.13;;;4.30;99.90;;;;;;4849982;29;20577;-64
2022/01/25 09:12:34;;;;;;;82.32;25.77;;;4.30;99.90;;;;;;4865297;29;20043;-64
2022/01/25 09:14:59;;;;;;;90.07;28.20;;;4.30;99.90;;;;;;4863595;29;20036;-64
2022/01/25 09:17:25;;;;;;;79.57;24.95;;;4.30;99.90;;;;;;4862821;29;20025;-64
2022/01/25 09:19:50;;;;;;;78.65;25.25;;;4.40;99.90;;;;;;4867334;29;20431;-66
2022/01/25 09:22:16;;;;;;;85.72;28.08;;;4.30;99.90;;;;;;4850589;29;20097;-64
2022/01/25 09:24:42;;;;;;;83.30;25.60;;;4.30;99.90;;;;;;4862021;29;20033;-68
2022/01/25 09:27:08;;;;;;;77.05;24.38;;;4.30;99.90;;;;;;4860163;29;20037;-64
2022/01/25 09:29:34;;;;;;;77.82;25.13;;;4.40;99.90;;;;;;4863913;29;20037;-64
2022/01/25 09:31:59;;;;;;;83.57;25.10;;;4.40;99.90;;;;;;4862193;29;20041;-70
2022/01/25 09:34:26;;;;;;;72.25;22.80;;;4.50;99.90;;;;;;4851941;29;20045;-69
2022/01/25 09:36:52;;;;;;;74.50;23.30;;;4.60;99.90;;;;;;4866067;29;20041;-68
2022/01/25 09:39:18;;;;;;;74.13;24.83;;;4.70;99.90;;;;;;4865227;29;20095;-65
2022/01/25 09:41:43;;;;;;;67.22;22.48;;;4.80;99.90;;;;;;4861230;29;20036;-68
2022/01/25 09:44:09;;;;;;;63.88;20.80;;;4.90;99.90;;;;;;4861693;29;20173;-69
2022/01/25 09:46:34;;;;;;;61.22;21.40;;;4.90;99.90;;;;;;4862659;29;20682;-69
2022/01/25 09:49:00;;;;;;;55.80;20.92;;;4.90;99.90;;;;;;4845991;29;20033;-69
2022/01/25 09:51:25;;;;;;;60.72;21.88;;;4.90;99.90;;;;;;4852372;29;20044;-69
2022/01/25 09:53:51;;;;;;;62.20;21.98;;;4.90;99.90;;;;;;4839550;29;20116;-69
2022/01/25 09:56:16;;;;;;;65.72;22.58;;;4.90;99.90;;;;;;4865047;29;20037;-63
2022/01/25 09:58:44;;;;;;;67.32;21.55;;;5.00;99.90;;;;;;4866272;29;20040;-65
2022/01/25 10:01:10;;;;;;;62.53;21.85;;;5.20;99.90;;;;;;4864832;29;20504;-65
2022/01/25 10:03:39;;;;;;;61.58;21.70;;;5.20;99.90;;;;;;4860708;29;20037;-68
2022/01/25 10:06:05;;;;;;;56.42;21.08;;;5.30;99.90;;;;;;4864985;29;20056;-65
2022/01/25 10:08:31;;;;;;;53.35;18.65;;;5.20;99.90;;;;;;4862913;29;20029;-65
2022/01/25 10:10:56;;;;;;;53.00;18.58;;;5.20;99.90;;;;;;4861218;29;20039;-64
2022/01/25 10:13:23;;;;;;;54.20;19.60;;;5.20;99.90;;;;;;4861239;29;20033;-67
2022/01/25 10:15:48;;;;;;;59.00;20.27;;;5.10;99.90;;;;;;4862011;29;20101;-67
2022/01/25 10:18:14;;;;;;;55.78;20.25;;;5.10;99.90;;;;;;4847145;29;20530;-64
2022/01/25 10:20:40;;;;;;;56.55;19.10;;;5.10;99.90;;;;;;4865152;29;20041;-67
2022/01/25 10:23:06;;;;;;;56.30;18.92;;;5.20;99.90;;;;;;4867602;29;20033;-67
2022/01/25 10:25:32;;;;;;;49.60;17.40;;;5.20;99.90;;;;;;4848909;29;20041;-68
2022/01/25 10:28:01;;;;;;;48.13;17.92;;;5.20;99.90;;;;;;4863170;29;20192;-63
2022/01/25 10:30:26;;;;;;;48.13;17.25;;;5.10;99.90;;;;;;4864048;29;20643;-67
2022/01/25 10:32:52;;;;;;;45.83;17.27;;;5.00;99.90;;;;;;4862947;29;20037;-64
2022/01/25 10:35:17;;;;;;;43.97;16.98;;;5.00;99.90;;;;;;4847116;29;20040;-64
2022/01/25 10:37:43;;;;;;;51.63;17.05;;;5.00;99.90;;;;;;4857449;29;20102;-64
2022/01/25 10:40:08;;;;;;;41.42;15.65;;;4.90;99.90;;;;;;4830538;29;20040;-64
2022/01/25 10:42:35;;;;;;;43.72;15.60;;;5.00;99.90;;;;;;4859642;29;20060;-64
2022/01/25 10:45:04;;;;;;;36.35;15.15;;;5.10;99.90;;;;;;4861327;29;20124;-64
2022/01/25 10:47:29;;;;;;;37.28;13.63;;;5.10;99.90;;;;;;4860277;29;20032;-64
2022/01/25 10:49:55;;;;;;;36.38;13.90;;;5.10;99.90;;;;;;4863011;29;20554;-68
2022/01/25 10:52:20;;;;;;;40.65;14.27;;;5.10;99.90;;;;;;4862326;29;20044;-68
2022/01/25 10:54:46;;;;;;;37.47;14.02;;;5.10;99.90;;;;;;4862127;29;20033;-67
2022/01/25 10:57:12;;;;;;;38.22;13.85;;;5.20;99.90;;;;;;4860377;29;20032;-68
2022/01/25 10:59:38;;;;;;;42.65;14.73;;;5.10;99.90;;;;;;4860532;29;20045;-64
2022/01/25 11:02:03;;;;;;;41.80;15.20;;;5.10;99.90;;;;;;4860309;29;20033;-69
2022/01/25 11:04:31;;;;;;;49.20;22.23;;;5.00;99.90;;;;;;4865340;29;20037;-69
2022/01/25 11:06:56;;;;;;;49.83;20.42;;;5.00;99.90;;;;;;4865031;29;20047;-63
2022/01/25 11:09:22;;;;;;;56.13;21.05;;;5.00;99.90;;;;;;4866041;29;20397;-65
2022/01/25 11:11:52;;;;;;;56.03;21.00;;;5.00;99.90;;;;;;4845823;29;20099;-65
2022/01/25 11:17:02;;;;;;;49.25;17.05;;;5.10;99.90;;;;;;4861271;29;20037;-65
2022/01/25 11:19:27;;;;;;;44.42;16.20;;;5.20;99.90;;;;;;4843586;29;20071;-69
2022/01/25 11:21:52;;;;;;;44.08;16.05;;;5.20;99.90;;;;;;4844638;29;20036;-69
2022/01/25 11:24:18;;;;;;;41.45;14.65;;;5.10;99.90;;;;;;4865147;29;20060;-65
2022/01/25 11:26:44;;;;;;;38.90;15.05;;;5.00;99.90;;;;;;4848276;29;20060;-68
2022/01/25 11:29:09;;;;;;;40.75;15.75;;;4.90;99.90;;;;;;4862565;29;20029;-65
2022/01/25 11:31:35;;;;;;;44.53;15.30;;;5.00;99.90;;;;;;4842135;29;20480;-65
2022/01/25 11:34:00;;;;;;;41.65;15.27;;;5.00;99.90;;;;;;4863970;29;20037;-63
2022/01/25 11:36:26;;;;;;;40.70;14.15;;;5.00;99.90;;;;;;4861023;29;20850;-63
2022/01/25 11:38:51;;;;;;;36.95;14.27;;;4.90;99.90;;;;;;4843517;29;20522;-63
2022/01/25 11:41:17;;;;;;;39.03;14.98;;;5.00;99.90;;;;;;4860711;29;20037;-63
2022/01/25 11:43:42;;;;;;;40.03;13.80;;;5.00;99.90;;;;;;4859768;29;20025;-65
2022/01/25 11:46:08;;;;;;;35.05;13.25;;;5.10;99.90;;;;;;4861862;29;20120;-67
2022/01/25 11:48:33;;;;;;;34.33;13.73;;;5.10;99.90;;;;;;4859858;29;20044;-67
2022/01/25 11:50:59;;;;;;;45.20;19.13;;;5.20;99.90;;;;;;4859079;29;20041;-63
2022/01/25 11:53:25;;;;;;;37.45;13.70;;;5.20;99.90;;;;;;4859026;29;20038;-67
2022/01/25 11:55:50;;;;;;;34.75;13.05;;;5.30;99.90;;;;;;4860187;29;20135;-64
2022/01/25 11:58:15;;;;;;;40.92;13.85;;;5.20;99.90;;;;;;4859132;29;20025;-63
2022/01/25 12:00:41;;;;;;;38.33;14.40;;;5.30;99.90;;;;;;4859052;29;20029;-64
2022/01/25 12:03:07;;;;;;;37.40;14.65;;;5.30;99.90;;;;;;4863796;29;20930;-63
2022/01/25 12:05:34;;;;;;;30.30;12.27;;;5.40;99.90;;;;;;4868263;29;20180;-67
2022/01/25 12:07:59;;;;;;;36.03;13.00;;;5.50;99.90;;;;;;4866206;29;20542;-67
2022/01/25 12:10:25;;;;;;;30.30;11.70;;;5.50;99.90;;;;;;4866613;29;20173;-63
2022/01/25 12:12:50;;;;;;;30.38;12.57;;;5.50;99.90;;;;;;4862997;29;20145;-66
2022/01/25 12:15:19;;;;;;;36.53;12.38;;;5.50;99.90;;;;;;4861095;29;20036;-67
2022/01/25 12:17:45;;;;;;;27.95;9.65;;;5.40;99.90;;;;;;4857857;29;20061;-67
2022/01/25 12:20:10;;;;;;;25.45;10.77;;;5.50;99.90;;;;;;4850528;29;20037;-67
2022/01/25 12:22:41;;;;;;;31.27;11.63;;;5.50;99.90;;;;;;4848051;29;20026;-63
2022/01/25 12:25:20;;;;;;;26.83;10.70;;;5.50;99.90;;;;;;4853295;29;20025;-63
2022/01/25 12:27:50;;;;;;;30.67;11.07;;;5.50;99.90;;;;;;4864827;29;20057;-66
2022/01/25 12:30:15;;;;;;;29.98;11.15;;;5.50;99.90;;;;;;4848678;29;20041;-66
2022/01/25 12:32:41;;;;;;;30.77;11.27;;;5.40;99.90;;;;;;4867585;29;20081;-66
2022/01/25 12:35:07;;;;;;;29.48;11.13;;;5.40;99.90;;;;;;4864722;29;20067;-67
2022/01/25 12:37:32;;;;;;;26.15;10.27;;;5.30;99.90;;;;;;4851506;29;20068;-64
2022/01/25 12:39:58;;;;;;;24.60;10.10;;;5.30;99.90;;;;;;4862591;29;20115;-63
2022/01/25 12:42:23;;;;;;;27.00;10.63;;;5.30;99.90;;;;;;4849502;29;20132;-64
2022/01/25 12:44:49;;;;;;;24.73;9.68;;;5.30;99.90;;;;;;4865405;29;20037;-63
2022/01/25 12:47:14;;;;;;;24.38;9.93;;;5.30;99.90;;;;;;4846836;29;20064;-67
2022/01/25 12:49:39;;;;;;;22.02;9.18;;;5.20;99.90;;;;;;4847746;29;20034;-67
2022/01/25 12:52:05;;;;;;;26.52;11.32;;;5.20;99.90;;;;;;4844706;29;20048;-67
2022/01/25 12:54:30;;;;;;;27.08;10.23;;;5.20;99.90;;;;;;4868580;29;20057;-67
2022/01/25 12:56:58;;;;;;;26.10;9.98;;;5.20;99.90;;;;;;4863633;29;20057;-67
2022/01/25 12:59:24;;;;;;;25.02;9.82;;;5.20;99.90;;;;;;4849103;29;20753;-64
2022/01/25 13:01:51;;;;;;;26.08;10.38;;;5.20;99.90;;;;;;4864464;29;20043;-63
2022/01/25 13:04:16;;;;;;;28.95;11.18;;;5.20;99.90;;;;;;4831519;29;20108;-66
2022/01/25 13:06:46;;;;;;;29.15;11.57;;;5.30;99.90;;;;;;4866098;29;20033;-67
2022/01/25 13:09:16;;;;;;;33.92;13.43;;;5.40;99.90;;;;;;4849056;29;20737;-63
2022/01/25 13:14:33;;;;;;;26.58;11.35;;;5.50;99.90;;;;;;4847858;29;20067;-67
2022/01/25 13:16:59;;;;;;;26.23;10.80;;;5.50;99.90;;;;;;4845480;29;20044;-68
2022/01/25 13:19:24;;;;;;;31.63;12.50;;;5.50;99.90;;;;;;4853138;29;20045;-68
2022/01/25 13:21:51;;;;;;;32.47;11.10;;;5.40;99.90;;;;;;4848461;29;20041;-64
2022/01/25 13:24:17;;;;;;;28.88;11.13;;;5.40;99.90;;;;;;4860618;29;20288;-64
2022/01/25 13:26:45;;;;;;;30.60;12.40;;;5.40;99.90;;;;;;4844704;29;20029;-67
2022/01/25 13:30:39;;;;;;;31.83;11.88;;;5.40;99.90;;;;;;4849472;29;20033;-63
2022/01/25 13:31:56;;;;;;;31.55;12.27;;;5.40;99.90;;;;;;4862280;29;20045;-64
2022/01/25 13:34:22;;;;;;;29.45;11.48;;;5.40;99.90;;;;;;4861470;29;20033;-65
2022/01/25 13:36:47;;;;;;;37.83;11.85;;;5.30;99.90;;;;;;4842764;29;20041;-63
2022/01/25 13:39:15;;;;;;;30.73;12.32;;;5.30;99.90;;;;;;4851129;29;20025;-63
2022/01/25 13:41:50;;;;;;;27.95;11.43;;;5.30;99.90;;;;;;4851544;29;20067;-63
2022/01/25 13:47:05;;;;;;;29.95;12.18;;;5.30;99.90;;;;;;4864492;29;20068;-63
2022/01/25 13:49:30;;;;;;;39.70;13.63;;;5.30;99.90;;;;;;4861494;29;20148;-64
2022/01/25 13:51:57;;;;;;;31.77;11.57;;;5.20;99.90;;;;;;4851868;29;20108;-63
2022/01/25 13:54:23;;;;;;;32.30;12.15;;;5.30;99.90;;;;;;4847930;29;20041;-63
2022/01/25 13:56:48;;;;;;;36.65;13.45;;;5.20;99.90;;;;;;4865258;29;20093;-63
2022/01/25 13:59:14;;;;;;;40.13;13.85;;;5.20;99.90;;;;;;4863679;29;20542;-63
2022/01/25 14:01:39;;;;;;;35.38;14.23;;;5.20;99.90;;;;;;4858278;29;20113;-63
2022/01/25 14:04:05;;;;;;;52.42;20.90;;;5.10;99.90;;;;;;4866989;29;20035;-64
2022/01/25 14:06:31;;;;;;;37.72;14.77;;;5.10;99.90;;;;;;4865917;29;20661;-64
2022/01/25 14:08:56;;;;;;;43.75;16.60;;;5.20;99.90;;;;;;4863165;29;20025;-64
2022/01/25 14:21:38;;;;;;;62.53;24.15;;;5.20;99.90;;;;;;4868785;29;20398;-63
2022/01/25 14:25:04;;;;;;;35.60;12.57;;;5.30;99.90;;;;;;4863079;29;20036;-64
2022/01/25 14:27:35;;;;;;;37.33;13.55;;;5.30;99.90;;;;;;4861806;29;20052;-63
2022/01/25 14:30:00;;;;;;;36.83;12.95;;;5.30;99.90;;;;;;4858696;29;20088;-64